createdAt,value
2022-08-14T00:05:13.011Z,5.40
2022-08-14T00:15:19.377Z,6.00
2022-08-14T00:25:41.652Z,6.18
2022-08-14T00:36:36.735Z,5.97
2022-08-14T00:46:23.253Z,5.82
2022-08-14T00:56:34.840Z,6.07
2022-08-14T01:06:39.511Z,6.30
2022-08-14T01:16:42.810Z,6.32
2022-08-14T01:26:53.284Z,6.15
2022-08-14T01:36:55.996Z,6.40
2022-08-14T01:47:01.766Z,6.35
2022-08-14T01:57:11.485Z,6.72
2022-08-14T02:07:15.992Z,6.88
2022-08-14T02:17:23.634Z,6.00
2022-08-14T02:28:24.891Z,6.43
2022-08-14T02:37:51.862Z,6.65
2022-08-14T02:47:57.584Z,6.88
2022-08-14T02:58:03.393Z,7.25
2022-08-14T03:08:11.111Z,6.07
2022-08-14T03:18:15.338Z,6.50
2022-08-14T03:28:32.935Z,6.18
2022-08-14T03:39:13.081Z,6.78
2022-08-14T03:49:08.695Z,6.65
2022-08-14T03:59:17.855Z,6.18
2022-08-14T04:09:22.303Z,5.50
2022-08-14T04:19:36.372Z,6.00
2022-08-14T04:29:42.375Z,5.75
2022-08-14T04:40:03.351Z,6.07
2022-08-14T04:50:09.140Z,6.70
2022-08-14T05:00:16.189Z,6.15
2022-08-14T05:21:54.740Z,5.53
2022-08-14T05:31:00.916Z,5.70
2022-08-14T05:41:06.435Z,5.95
2022-08-14T05:51:13.444Z,6.78
2022-08-14T06:01:16.524Z,6.18
2022-08-14T06:11:30.759Z,6.10
2022-08-14T06:21:34.081Z,6.70
2022-08-14T06:31:39.279Z,6.47
2022-08-14T06:41:57.213Z,6.63
2022-08-14T06:52:03.076Z,6.10
2022-08-14T07:02:29.147Z,6.68
2022-08-14T07:12:54.087Z,6.07
2022-08-14T07:23:01.396Z,5.95
2022-08-14T07:33:12.681Z,5.38
2022-08-14T07:43:16.445Z,5.60
2022-08-14T07:53:21.657Z,5.40
2022-08-14T08:03:27.980Z,5.57
2022-08-14T08:13:34.787Z,5.50
2022-08-14T08:23:43.579Z,5.72
2022-08-14T08:33:55.421Z,5.13
2022-08-14T08:44:16.971Z,5.15
2022-08-14T08:54:26.759Z,5.28
2022-08-14T09:04:37.286Z,4.80
2022-08-14T09:14:53.163Z,5.00
2022-08-14T09:24:56.279Z,4.45
2022-08-14T09:35:09.496Z,4.55
2022-08-14T09:45:17.021Z,4.32
2022-08-14T09:55:22.234Z,4.70
2022-08-14T10:05:31.494Z,4.78
2022-08-14T10:15:46.775Z,5.03
2022-08-14T10:25:53.133Z,4.82
2022-08-14T10:36:00.542Z,4.65
2022-08-14T10:46:59.515Z,4.57
2022-08-14T10:56:34.965Z,4.88
2022-08-14T11:06:38.797Z,4.80
2022-08-14T11:16:53.669Z,4.95
2022-08-14T11:26:57.400Z,4.78
2022-08-14T11:37:21.960Z,4.40
2022-08-14T11:47:35.543Z,4.80
2022-08-14T11:58:03.312Z,5.25
2022-08-14T12:08:12.138Z,4.75
2022-08-14T12:18:19.803Z,4.90
2022-08-14T12:28:27.149Z,4.70
2022-08-14T12:38:41.335Z,4.40
2022-08-14T12:48:50.350Z,4.93
2022-08-14T12:58:57.879Z,4.80
2022-08-14T13:09:02.043Z,4.28
2022-08-14T13:19:11.154Z,5.00
2022-08-14T13:29:18.548Z,4.30
2022-08-14T13:39:26.672Z,4.50
2022-08-14T13:49:30.055Z,4.15
2022-08-14T13:59:37.763Z,4.27
2022-08-14T14:09:52.734Z,4.88
2022-08-14T14:19:57.593Z,4.30
2022-08-14T14:30:01.559Z,4.53
2022-08-14T14:40:53.053Z,4.35
2022-08-14T15:00:38.217Z,4.25
2022-08-14T15:10:40.905Z,4.25
2022-08-14T15:20:54.036Z,4.20
2022-08-14T15:30:59.351Z,4.22
2022-08-14T15:41:08.536Z,4.25
2022-08-14T15:51:11.626Z,4.00
2022-08-14T16:01:43.642Z,4.15
2022-08-14T16:11:47.475Z,4.22
2022-08-14T16:22:57.342Z,4.22
2022-08-14T16:32:33.203Z,4.03
2022-08-14T16:43:04.384Z,4.88
2022-08-14T16:53:07.410Z,3.90
2022-08-14T17:03:14.562Z,4.60
2022-08-14T17:13:18.283Z,4.50
2022-08-14T17:23:22.406Z,4.53
2022-08-14T17:33:40.583Z,4.68
2022-08-14T17:43:54.916Z,4.22
2022-08-14T17:54:02.944Z,4.38
2022-08-14T18:04:25.147Z,4.63
2022-08-14T18:14:48.718Z,4.65
2022-08-14T18:24:54.602Z,4.75
2022-08-14T18:35:11.167Z,4.80
2022-08-14T18:45:28.892Z,4.97
2022-08-14T18:55:54.079Z,4.95
2022-08-14T19:05:59.198Z,5.05
2022-08-14T19:16:07.454Z,4.70
2022-08-14T19:26:35.578Z,4.70
2022-08-14T19:37:05.173Z,5.18
2022-08-14T19:47:11.645Z,5.00
2022-08-14T19:57:18.948Z,4.70
2022-08-14T20:07:59.734Z,5.35
2022-08-14T20:17:55.329Z,5.22
2022-08-14T20:28:29.934Z,5.20
2022-08-14T20:38:33.793Z,5.53
2022-08-14T20:48:50.931Z,5.53
2022-08-14T20:58:56.179Z,5.65
2022-08-14T21:09:03.259Z,5.57
2022-08-14T21:19:08.500Z,5.13
2022-08-14T21:29:14.282Z,5.15
2022-08-14T21:39:18.519Z,5.63
2022-08-14T21:49:24.222Z,5.28
2022-08-14T21:59:29.704Z,5.95
2022-08-14T22:09:36.654Z,5.80
2022-08-14T22:19:43.555Z,5.67
2022-08-14T22:40:58.125Z,5.95
2022-08-14T22:50:28.874Z,5.50
2022-08-14T23:00:35.074Z,6.20
2022-08-14T23:10:39.743Z,6.13
2022-08-14T23:20:44.363Z,6.38
2022-08-14T23:30:49.024Z,5.75
2022-08-14T23:40:52.112Z,6.43
2022-08-14T23:50:56.389Z,6.65
